メインページ
METAR-TAF:

METAR-TAF

空港 :

コンゴーニャス空港

サンパウロ, サンパウロ州, ブラジル

緯度: 23-37S, 経度: 046-39W, 海抜: 803m

現時点の気象観測

当レポートは54分前の11:00(UTC)に作成
北/北東の風 2kt
気温 12°C
湿度 94%
気圧 1022 hPa
視程: 5000m

METAR: SBSP 221100Z 03002KT 5000 BR NSC 12/11 Q1022

時間: 08:54 (11:54 UTC)

予報

当レポートは1時間32分前の10:22(UTC)に作成
予報は22日の 12時(UTC)から 23日の 12時(UTC)まで有効
東/北東の風 5kt
視程10km以上
1,500メートル以下は雲なし、積乱雲なし
22日の 12時(UTC)から 22日の 14時(UTC)まで徐々に
西/北西の風 5kt
22日の 16時(UTC)から 22日の 18時(UTC)まで徐々に
西/南西の風 5kt
22日の 19時(UTC)から 22日の 21時(UTC)まで徐々に
南/南東の風 3kt
23日の 02時(UTC)から 23日の 04時(UTC)まで徐々に
視程: 4000m
高度300ftの雲はほとんどない
確率 30%
23日の 07時(UTC)から 23日の 11時(UTC)まで
視程: 1200m
高度500ftの千切れ雲あり

TAF: SBSP 221022Z 2212/2312 06005KT CAVOK TX22/2218Z TN12/2309Z BECMG 2212/2214 30005KT BECMG 2216/2218 24005KT BECMG 2219/2221 16003KT BECMG 2302/2304 4000 BR FEW003 PROB30 2307/2311 1200 BR BKN005 RMK PGQ

4,000以上の空港の気象観測と天気予報(METAR報とTAF報)

利用可能な観測所は地図上に黄色い丸と赤い丸で示す。

丸の上にカーソルを重ねると観測所名を参照できる。

次にクリックすると気象観測と天気予報を参照できる。

マップの切り替え:黒色「×」印の緑ボタンをクリックして拡大、「-」印の緑ボタンをクリックして縮小、緑色の三角印をクリックして隣りの地図に切り替え


METAR-TAF: